Time;durP1;ratioP1;P1;durP2;ratioP2;P2;SDS_P1;SDS_P2;PMS_P1;PMS_P2;Temp;Humidity;BMP_temperature;BMP_pressure;BME280_temperature;BME280_humidity;BME280_pressure;Samples;Min_cycle;Max_cycle;Signal;HPM_P1;HPM_P2
2021/07/10 00:01:54;;;;;;;4.75;3.10;;;;;;;;;;5075009;28;20028;-60
2021/07/10 00:04:21;;;;;;;3.30;2.63;;;;;;;;;;5056901;28;20051;-60
2021/07/10 00:06:48;;;;;;;3.60;2.50;;;;;;;;;;5074888;28;20020;-61
2021/07/10 00:09:14;;;;;;;3.03;1.98;;;;;;;;;;5056761;28;20025;-61
2021/07/10 00:11:40;;;;;;;2.20;2.00;;;;;;;;;;5056651;28;20036;-60
2021/07/10 00:14:06;;;;;;;2.65;2.15;;;;;;;;;;5071374;28;20033;-61
2021/07/10 00:16:33;;;;;;;2.95;2.25;;;;;;;;;;5054758;28;20032;-60
2021/07/10 00:18:59;;;;;;;2.83;2.10;;;;;;;;;;5054501;28;20021;-61
2021/07/10 00:21:25;;;;;;;2.88;2.13;;;;;;;;;;5054607;28;20025;-60
2021/07/10 00:23:51;;;;;;;3.65;2.50;;;;;;;;;;5089487;28;20514;-61
2021/07/10 00:26:17;;;;;;;2.65;2.30;;;;;;;;;;5094611;28;20032;-61
2021/07/10 00:28:43;;;;;;;3.58;2.80;;;;;;;;;;5077628;28;20021;-61
2021/07/10 00:31:10;;;;;;;4.40;2.78;;;;;;;;;;5074482;28;20025;-61
2021/07/10 00:33:36;;;;;;;5.18;4.03;;;;;;;;;;5074313;28;20106;-61
2021/07/10 00:36:03;;;;;;;4.35;3.20;;;;;;;;;;5074374;28;20548;-60
2021/07/10 00:38:29;;;;;;;4.80;3.00;;;;;;;;;;5074256;28;20056;-61
2021/07/10 00:40:55;;;;;;;4.72;2.83;;;;;;;;;;5074280;28;20136;-60
2021/07/10 00:43:21;;;;;;;5.25;2.88;;;;;;;;;;5074182;28;20033;-60
2021/07/10 00:45:47;;;;;;;3.30;2.67;;;;;;;;;;5073952;28;20032;-61
2021/07/10 00:48:14;;;;;;;4.63;3.30;;;;;;;;;;5074020;28;20021;-61
2021/07/10 00:50:40;;;;;;;4.22;2.97;;;;;;;;;;5073903;28;20031;-62
2021/07/10 00:53:06;;;;;;;4.57;3.08;;;;;;;;;;5073952;28;20032;-60
2021/07/10 00:55:32;;;;;;;4.43;2.65;;;;;;;;;;5074069;28;20025;-60
2021/07/10 00:57:59;;;;;;;3.42;2.70;;;;;;;;;;5073925;28;20024;-61
2021/07/10 01:00:25;;;;;;;3.38;2.80;;;;;;;;;;5073882;28;20032;-61
2021/07/10 01:02:53;;;;;;;3.00;2.53;;;;;;;;;;5073654;28;20153;-60
2021/07/10 01:05:26;;;;;;;3.78;2.50;;;;;;;;;;5073531;28;20059;-61
2021/07/10 01:07:52;;;;;;;4.25;2.50;;;;;;;;;;5073778;28;20024;-60
2021/07/10 01:10:19;;;;;;;2.80;2.45;;;;;;;;;;5073694;28;20021;-60
2021/07/10 01:12:47;;;;;;;3.15;2.65;;;;;;;;;;5073674;28;20103;-61
2021/07/10 01:15:13;;;;;;;4.05;2.78;;;;;;;;;;5060999;28;20024;-61
2021/07/10 01:17:42;;;;;;;3.63;2.75;;;;;;;;;;5053465;28;20040;-61
2021/07/10 01:20:10;;;;;;;4.32;2.45;;;;;;;;;;5061910;28;20020;-60
2021/07/10 01:22:40;;;;;;;3.03;2.42;;;;;;;;;;5053041;28;20028;-60
2021/07/10 01:25:07;;;;;;;2.85;2.42;;;;;;;;;;5053422;28;20053;-61
2021/07/10 01:27:33;;;;;;;6.97;2.50;;;;;;;;;;5053329;28;20033;-61
2021/07/10 01:30:02;;;;;;;4.05;2.67;;;;;;;;;;5053360;28;20029;-60
2021/07/10 01:32:28;;;;;;;4.40;2.67;;;;;;;;;;5053145;28;20025;-62
2021/07/10 01:34:54;;;;;;;6.18;3.60;;;;;;;;;;5054645;28;20032;-60
2021/07/10 01:37:20;;;;;;;5.38;3.40;;;;;;;;;;5073178;28;20497;-60
2021/07/10 01:39:47;;;;;;;4.55;3.28;;;;;;;;;;5073094;28;20024;-61
2021/07/10 01:42:13;;;;;;;7.05;3.35;;;;;;;;;;5072985;28;20096;-60
2021/07/10 01:44:39;;;;;;;4.53;3.20;;;;;;;;;;5073140;28;20021;-60
2021/07/10 01:47:05;;;;;;;5.60;3.10;;;;;;;;;;5072871;28;20423;-61
2021/07/10 01:49:32;;;;;;;4.70;3.30;;;;;;;;;;5072381;28;20032;-60
2021/07/10 01:51:58;;;;;;;4.13;3.28;;;;;;;;;;5072568;28;20036;-61
2021/07/10 01:54:24;;;;;;;4.78;3.08;;;;;;;;;;5072930;28;20025;-60
2021/07/10 01:56:51;;;;;;;6.15;3.40;;;;;;;;;;5072752;28;20589;-61
2021/07/10 01:59:17;;;;;;;4.28;2.85;;;;;;;;;;5072791;28;20437;-62
2021/07/10 02:01:47;;;;;;;4.82;3.08;;;;;;;;;;5072795;28;20051;-60
2021/07/10 02:04:15;;;;;;;4.32;3.38;;;;;;;;;;5072788;28;20386;-61
2021/07/10 02:06:41;;;;;;;3.42;3.05;;;;;;;;;;5072549;28;20032;-60
2021/07/10 02:09:07;;;;;;;3.97;3.10;;;;;;;;;;5072564;28;20471;-61
2021/07/10 02:11:34;;;;;;;4.55;3.00;;;;;;;;;;5072628;28;20052;-60
2021/07/10 02:14:00;;;;;;;8.40;3.00;;;;;;;;;;5069926;28;20025;-60
2021/07/10 02:16:26;;;;;;;3.10;2.80;;;;;;;;;;5052469;28;20028;-61
2021/07/10 02:18:52;;;;;;;4.65;3.03;;;;;;;;;;5052290;28;20025;-60
2021/07/10 02:21:18;;;;;;;3.15;2.50;;;;;;;;;;5052384;28;20025;-61
2021/07/10 02:23:44;;;;;;;2.60;2.13;;;;;;;;;;5069277;28;20049;-61
2021/07/10 02:26:10;;;;;;;3.10;2.10;;;;;;;;;;5072271;28;20032;-61
2021/07/10 02:28:36;;;;;;;2.88;2.50;;;;;;;;;;5072326;28;20025;-60
2021/07/10 02:31:02;;;;;;;3.08;2.63;;;;;;;;;;5072630;28;20029;-61
2021/07/10 02:33:28;;;;;;;4.45;2.90;;;;;;;;;;5072165;28;20020;-61
2021/07/10 02:35:54;;;;;;;4.05;2.70;;;;;;;;;;5072325;28;20028;-61
2021/07/10 02:38:20;;;;;;;3.97;2.67;;;;;;;;;;5072351;28;20138;-61
2021/07/10 02:40:46;;;;;;;4.03;3.08;;;;;;;;;;5072362;28;20467;-60
2021/07/10 02:43:13;;;;;;;5.15;3.10;;;;;;;;;;5072172;28;20024;-61
2021/07/10 02:45:39;;;;;;;3.85;2.80;;;;;;;;;;5054210;28;20032;-60
2021/07/10 02:48:05;;;;;;;3.17;2.60;;;;;;;;;;5074133;28;20482;-61
2021/07/10 02:50:31;;;;;;;3.45;2.65;;;;;;;;;;5076408;28;20020;-61
2021/07/10 02:53:01;;;;;;;4.82;3.70;;;;;;;;;;5076311;28;20021;-60
2021/07/10 02:55:28;;;;;;;3.80;3.17;;;;;;;;;;5076252;28;20023;-60
2021/07/10 02:57:54;;;;;;;4.75;2.83;;;;;;;;;;5076256;28;20012;-61
2021/07/10 03:00:23;;;;;;;4.60;2.60;;;;;;;;;;5075992;28;20070;-60
2021/07/10 03:02:49;;;;;;;4.07;2.53;;;;;;;;;;5075977;28;20031;-61
2021/07/10 03:05:16;;;;;;;3.97;2.75;;;;;;;;;;5075994;28;20022;-61
2021/07/10 03:07:43;;;;;;;4.55;2.85;;;;;;;;;;5076040;28;20067;-61
2021/07/10 03:10:10;;;;;;;4.90;3.25;;;;;;;;;;5075952;28;20024;-60
2021/07/10 03:12:36;;;;;;;4.43;2.80;;;;;;;;;;5075793;28;20448;-60
2021/07/10 03:15:03;;;;;;;4.43;2.65;;;;;;;;;;5064507;28;20040;-60
2021/07/10 03:17:29;;;;;;;4.03;2.90;;;;;;;;;;5062054;28;20541;-61
2021/07/10 03:19:56;;;;;;;4.78;2.95;;;;;;;;;;5066537;28;20499;-62
2021/07/10 03:22:22;;;;;;;4.15;2.78;;;;;;;;;;5055653;28;20025;-59
2021/07/10 03:24:48;;;;;;;3.65;2.88;;;;;;;;;;5055670;28;20032;-61
2021/07/10 03:27:15;;;;;;;5.38;2.92;;;;;;;;;;5055561;28;20492;-60
2021/07/10 03:29:41;;;;;;;3.90;3.08;;;;;;;;;;5055639;28;20111;-61
2021/07/10 03:32:08;;;;;;;3.60;3.15;;;;;;;;;;5055396;28;20021;-62
2021/07/10 03:34:34;;;;;;;4.47;3.00;;;;;;;;;;5062858;28;20105;-61
2021/07/10 03:37:00;;;;;;;4.25;3.28;;;;;;;;;;5075420;28;20032;-62
2021/07/10 03:39:26;;;;;;;4.47;3.25;;;;;;;;;;5057591;28;20036;-61
2021/07/10 03:41:52;;;;;;;3.85;2.97;;;;;;;;;;5075522;28;20429;-61
2021/07/10 03:44:18;;;;;;;4.88;2.95;;;;;;;;;;5075280;28;20031;-60
2021/07/10 03:46:45;;;;;;;6.22;3.47;;;;;;;;;;5057159;28;20028;-61
2021/07/10 03:49:12;;;;;;;3.60;2.75;;;;;;;;;;5075411;28;20028;-60
2021/07/10 03:51:38;;;;;;;5.80;3.33;;;;;;;;;;5075060;28;20025;-60
2021/07/10 03:54:04;;;;;;;3.85;3.22;;;;;;;;;;5075168;28;20020;-60
2021/07/10 03:56:30;;;;;;;4.53;3.40;;;;;;;;;;5075156;28;20055;-61
2021/07/10 03:58:56;;;;;;;5.05;3.10;;;;;;;;;;5074919;28;20028;-60
2021/07/10 04:01:22;;;;;;;5.53;3.50;;;;;;;;;;5074981;28;20029;-60
2021/07/10 04:03:49;;;;;;;4.55;2.70;;;;;;;;;;5075110;28;20032;-61
2021/07/10 04:06:15;;;;;;;5.38;3.30;;;;;;;;;;5074889;28;20503;-61
2021/07/10 04:08:41;;;;;;;3.92;2.92;;;;;;;;;;5074832;28;20035;-61
2021/07/10 04:11:07;;;;;;;4.53;3.08;;;;;;;;;;5075212;28;20020;-60
2021/07/10 04:13:33;;;;;;;4.22;2.90;;;;;;;;;;5074774;28;20604;-61
2021/07/10 04:16:00;;;;;;;5.18;3.00;;;;;;;;;;5055998;28;20033;-61
2021/07/10 04:18:27;;;;;;;3.85;2.75;;;;;;;;;;5054960;28;20115;-61
2021/07/10 04:20:54;;;;;;;3.42;2.60;;;;;;;;;;5054598;28;20525;-61
2021/07/10 04:23:20;;;;;;;3.65;2.80;;;;;;;;;;5054420;28;20044;-61
2021/07/10 04:25:46;;;;;;;4.18;2.67;;;;;;;;;;5063229;28;20036;-61
2021/07/10 04:28:13;;;;;;;3.38;2.78;;;;;;;;;;5074538;28;20107;-61
2021/07/10 04:30:40;;;;;;;3.22;2.88;;;;;;;;;;5056597;28;20056;-61
2021/07/10 04:33:06;;;;;;;3.20;2.67;;;;;;;;;;5074775;28;20025;-61
2021/07/10 04:35:32;;;;;;;3.35;2.80;;;;;;;;;;5074333;28;20100;-61
2021/07/10 04:37:58;;;;;;;3.28;2.67;;;;;;;;;;5074358;28;20028;-61
2021/07/10 04:40:24;;;;;;;3.53;3.15;;;;;;;;;;5074305;28;20025;-61
2021/07/10 04:42:50;;;;;;;3.78;2.60;;;;;;;;;;5074000;28;20024;-62
2021/07/10 04:45:16;;;;;;;3.50;2.70;;;;;;;;;;5074131;28;20103;-61
2021/07/10 04:47:43;;;;;;;3.00;2.55;;;;;;;;;;5074479;28;20429;-61
2021/07/10 04:50:10;;;;;;;3.05;2.50;;;;;;;;;;5074242;28;20369;-61
2021/07/10 04:52:36;;;;;;;3.25;2.70;;;;;;;;;;5073848;28;20237;-61
2021/07/10 04:55:04;;;;;;;3.10;2.60;;;;;;;;;;5073897;28;20028;-61
2021/07/10 04:57:30;;;;;;;3.33;2.50;;;;;;;;;;5073794;28;20029;-62
2021/07/10 04:59:56;;;;;;;4.88;3.45;;;;;;;;;;5073954;28;20032;-61
2021/07/10 05:02:22;;;;;;;4.47;2.92;;;;;;;;;;5073870;28;20027;-61
2021/07/10 05:04:48;;;;;;;4.05;3.35;;;;;;;;;;5073832;28;20028;-61
2021/07/10 05:07:14;;;;;;;5.32;3.13;;;;;;;;;;5073778;28;20032;-61
2021/07/10 05:09:40;;;;;;;3.17;2.60;;;;;;;;;;5073272;28;20107;-60
2021/07/10 05:12:06;;;;;;;4.38;2.88;;;;;;;;;;5073188;28;20028;-61
2021/07/10 05:14:32;;;;;;;3.55;2.60;;;;;;;;;;5066395;28;20021;-61
2021/07/10 05:16:58;;;;;;;3.53;2.72;;;;;;;;;;5064124;28;20060;-61
2021/07/10 05:19:25;;;;;;;3.78;2.60;;;;;;;;;;5068866;28;20432;-60
2021/07/10 05:21:51;;;;;;;4.05;2.70;;;;;;;;;;5054906;28;20029;-61
2021/07/10 05:24:17;;;;;;;3.22;2.67;;;;;;;;;;5073354;28;20059;-61
2021/07/10 05:26:43;;;;;;;2.97;2.38;;;;;;;;;;5073217;28;20085;-62
2021/07/10 05:29:09;;;;;;;2.90;2.60;;;;;;;;;;5073337;28;20031;-61
2021/07/10 05:31:35;;;;;;;5.25;2.55;;;;;;;;;;5073363;28;20027;-61
2021/07/10 05:34:01;;;;;;;2.90;2.60;;;;;;;;;;5072998;28;20036;-61
2021/07/10 05:36:27;;;;;;;3.50;2.95;;;;;;;;;;5073206;28;20056;-61
2021/07/10 05:38:54;;;;;;;6.03;3.10;;;;;;;;;;5073182;28;20024;-60
2021/07/10 05:41:20;;;;;;;3.92;3.10;;;;;;;;;;5073013;28;20078;-61
2021/07/10 05:43:46;;;;;;;5.50;3.97;;;;;;;;;;5055146;28;20082;-60
2021/07/10 05:46:12;;;;;;;5.07;3.63;;;;;;;;;;5073048;28;20375;-60
2021/07/10 05:48:38;;;;;;;6.65;4.28;;;;;;;;;;5073104;28;20096;-60
2021/07/10 05:51:04;;;;;;;4.72;3.70;;;;;;;;;;5073080;28;20379;-60
2021/07/10 05:53:31;;;;;;;4.25;3.60;;;;;;;;;;5072818;28;20019;-60
2021/07/10 05:55:57;;;;;;;6.10;3.65;;;;;;;;;;5072744;28;20107;-60
2021/07/10 05:58:23;;;;;;;6.35;4.85;;;;;;;;;;5072872;28;20027;-60
2021/07/10 06:00:49;;;;;;;5.18;4.28;;;;;;;;;;5071838;28;20017;-60
2021/07/10 06:03:15;;;;;;;5.88;3.75;;;;;;;;;;5070934;28;20259;-61
2021/07/10 06:05:41;;;;;;;5.45;3.92;;;;;;;;;;5070962;28;20028;-60
2021/07/10 06:08:07;;;;;;;5.47;3.65;;;;;;;;;;5071171;28;20081;-60
2021/07/10 06:10:33;;;;;;;7.88;3.80;;;;;;;;;;5071195;28;20029;-60
2021/07/10 06:12:59;;;;;;;5.60;4.15;;;;;;;;;;5071306;28;20021;-60
2021/07/10 06:15:26;;;;;;;5.97;3.75;;;;;;;;;;5053199;28;20033;-60
2021/07/10 06:17:52;;;;;;;6.85;3.85;;;;;;;;;;5072439;28;20107;-61
2021/07/10 06:20:21;;;;;;;3.85;3.20;;;;;;;;;;5060309;28;20480;-61
2021/07/10 06:22:48;;;;;;;6.43;3.10;;;;;;;;;;5052149;28;20044;-60
2021/07/10 06:25:15;;;;;;;4.68;3.10;;;;;;;;;;5065073;28;20104;-60
2021/07/10 06:27:41;;;;;;;4.93;3.40;;;;;;;;;;5072503;28;20024;-60
2021/07/10 06:30:08;;;;;;;4.97;2.88;;;;;;;;;;5072041;28;20028;-60
2021/07/10 06:32:35;;;;;;;6.10;3.40;;;;;;;;;;5070402;28;20054;-60
2021/07/10 06:35:01;;;;;;;5.03;3.35;;;;;;;;;;5070863;28;20726;-60
2021/07/10 06:37:27;;;;;;;4.82;3.60;;;;;;;;;;5072047;28;20028;-60
2021/07/10 06:39:53;;;;;;;4.85;3.13;;;;;;;;;;5072435;28;20034;-59
2021/07/10 06:42:20;;;;;;;4.18;3.25;;;;;;;;;;5072032;28;20020;-60
2021/07/10 06:44:46;;;;;;;3.72;3.05;;;;;;;;;;5072254;28;20028;-61
2021/07/10 06:47:13;;;;;;;3.63;3.10;;;;;;;;;;5071773;28;20031;-60
2021/07/10 06:49:39;;;;;;;8.43;3.63;;;;;;;;;;5072097;28;20077;-60
2021/07/10 06:52:06;;;;;;;4.10;3.13;;;;;;;;;;5072297;28;20372;-60
2021/07/10 06:54:32;;;;;;;4.60;3.45;;;;;;;;;;5071373;28;20020;-60
2021/07/10 06:56:59;;;;;;;4.57;3.30;;;;;;;;;;5071195;28;20364;-60
2021/07/10 06:59:25;;;;;;;5.53;3.35;;;;;;;;;;5070915;28;20102;-63
2021/07/10 07:01:51;;;;;;;3.67;2.90;;;;;;;;;;5071466;28;20034;-60
2021/07/10 07:04:20;;;;;;;6.05;3.35;;;;;;;;;;5071945;28;20463;-61
2021/07/10 07:06:46;;;;;;;4.63;3.00;;;;;;;;;;5071743;28;20024;-60
2021/07/10 07:09:12;;;;;;;4.82;3.28;;;;;;;;;;5071955;28;20092;-60
2021/07/10 07:11:38;;;;;;;4.10;3.70;;;;;;;;;;5071655;28;20354;-60
2021/07/10 07:14:05;;;;;;;4.95;3.40;;;;;;;;;;5071905;28;20021;-60
2021/07/10 07:16:32;;;;;;;6.65;3.58;;;;;;;;;;5071639;28;20025;-61
2021/07/10 07:18:58;;;;;;;5.85;3.90;;;;;;;;;;5071393;28;20080;-60
2021/07/10 07:21:24;;;;;;;4.45;4.03;;;;;;;;;;5071841;28;20513;-61
2021/07/10 07:23:50;;;;;;;3.63;2.95;;;;;;;;;;5071650;28;20449;-60
2021/07/10 07:26:19;;;;;;;4.57;3.20;;;;;;;;;;5071239;28;20115;-60
2021/07/10 07:28:45;;;;;;;5.82;3.17;;;;;;;;;;5071646;28;20017;-60
2021/07/10 07:31:11;;;;;;;4.15;2.83;;;;;;;;;;5071687;28;20024;-60
2021/07/10 07:33:37;;;;;;;3.80;3.00;;;;;;;;;;5060607;28;20390;-60
2021/07/10 07:36:04;;;;;;;3.53;2.72;;;;;;;;;;5054562;28;20058;-61
2021/07/10 07:38:30;;;;;;;3.70;2.80;;;;;;;;;;5055067;28;20497;-61
2021/07/10 07:40:56;;;;;;;4.10;3.53;;;;;;;;;;5054883;28;20494;-60
2021/07/10 07:43:22;;;;;;;3.03;2.63;;;;;;;;;;5055284;28;20071;-60
2021/07/10 07:45:48;;;;;;;4.60;2.83;;;;;;;;;;5055042;28;20017;-61
2021/07/10 07:48:14;;;;;;;3.90;2.83;;;;;;;;;;5054850;28;20033;-60
2021/07/10 07:50:41;;;;;;;4.95;2.92;;;;;;;;;;5071432;28;20063;-60
2021/07/10 07:53:07;;;;;;;3.20;2.83;;;;;;;;;;5075103;28;20032;-61
2021/07/10 07:55:34;;;;;;;6.50;3.15;;;;;;;;;;5074807;28;20108;-61
2021/07/10 07:58:00;;;;;;;3.42;2.55;;;;;;;;;;5075217;28;20052;-60
2021/07/10 08:00:26;;;;;;;4.93;2.80;;;;;;;;;;5074682;28;20111;-60
2021/07/10 08:02:52;;;;;;;5.85;3.00;;;;;;;;;;5074496;28;20024;-60
2021/07/10 08:05:19;;;;;;;3.10;2.60;;;;;;;;;;5074861;28;20025;-61
2021/07/10 08:07:45;;;;;;;3.58;2.70;;;;;;;;;;5074223;28;20024;-61
2021/07/10 08:10:13;;;;;;;3.50;2.65;;;;;;;;;;5074817;28;20024;-60
2021/07/10 08:12:40;;;;;;;3.80;2.60;;;;;;;;;;5074731;28;20013;-61
2021/07/10 08:15:07;;;;;;;4.32;2.92;;;;;;;;;;5074692;28;20067;-61
2021/07/10 08:17:33;;;;;;;4.68;3.05;;;;;;;;;;5074486;28;20104;-61
2021/07/10 08:20:00;;;;;;;4.57;2.83;;;;;;;;;;5064812;28;20060;-62
2021/07/10 08:22:26;;;;;;;4.18;2.90;;;;;;;;;;5054201;28;20033;-61
2021/07/10 08:24:52;;;;;;;3.97;2.95;;;;;;;;;;5073029;28;20048;-61
2021/07/10 08:27:19;;;;;;;5.90;3.20;;;;;;;;;;5074591;28;20112;-61
2021/07/10 08:29:45;;;;;;;4.07;2.83;;;;;;;;;;5073940;28;20048;-61
2021/07/10 08:32:11;;;;;;;3.67;2.85;;;;;;;;;;5074210;28;20198;-61
2021/07/10 08:34:37;;;;;;;3.72;2.80;;;;;;;;;;5075412;28;20048;-61
2021/07/10 08:37:04;;;;;;;3.35;2.88;;;;;;;;;;5076611;28;20032;-62
2021/07/10 08:39:30;;;;;;;3.83;2.95;;;;;;;;;;5073886;28;20026;-61
2021/07/10 08:41:56;;;;;;;2.97;2.67;;;;;;;;;;5074169;28;20033;-61
2021/07/10 08:44:23;;;;;;;2.80;2.50;;;;;;;;;;5073768;28;20044;-61
2021/07/10 08:46:51;;;;;;;3.10;2.67;;;;;;;;;;5073326;28;20039;-60
2021/07/10 08:49:18;;;;;;;3.40;2.42;;;;;;;;;;5073957;28;20024;-62
2021/07/10 08:51:45;;;;;;;2.88;2.58;;;;;;;;;;5073988;28;20021;-61
2021/07/10 08:54:12;;;;;;;3.33;2.63;;;;;;;;;;5068145;28;20043;-61
2021/07/10 08:56:38;;;;;;;3.45;2.53;;;;;;;;;;5053293;28;20033;-62
2021/07/10 08:59:04;;;;;;;4.57;2.70;;;;;;;;;;5073359;28;20032;-61
2021/07/10 09:01:30;;;;;;;4.13;2.63;;;;;;;;;;5073362;28;20032;-61
2021/07/10 09:03:59;;;;;;;3.25;2.70;;;;;;;;;;5074287;28;20549;-59
2021/07/10 09:06:25;;;;;;;2.97;2.50;;;;;;;;;;5073077;28;20020;-61
2021/07/10 09:08:55;;;;;;;4.45;2.63;;;;;;;;;;5073464;28;20050;-61
2021/07/10 09:11:21;;;;;;;3.50;2.63;;;;;;;;;;5073473;28;20048;-61
2021/07/10 09:13:57;;;;;;;3.97;3.22;;;;;;;;;;5073402;28;20418;-61
2021/07/10 09:16:24;;;;;;;2.80;2.50;;;;;;;;;;5057599;28;20028;-60
2021/07/10 09:18:52;;;;;;;4.50;2.95;;;;;;;;;;5080889;28;20096;-61
2021/07/10 09:21:34;;;;;;;4.18;3.00;;;;;;;;;;5052951;28;20381;-61
2021/07/10 09:24:01;;;;;;;3.28;2.45;;;;;;;;;;5085632;28;20105;-61
2021/07/10 09:26:27;;;;;;;3.28;2.50;;;;;;;;;;5093805;28;20490;-61
2021/07/10 09:29:08;;;;;;;2.92;2.42;;;;;;;;;;5094098;28;20061;-61
2021/07/10 09:31:36;;;;;;;4.40;2.60;;;;;;;;;;5086006;28;20100;-61
2021/07/10 09:34:07;;;;;;;3.47;2.50;;;;;;;;;;5073496;28;20145;-61
2021/07/10 09:36:33;;;;;;;2.88;2.60;;;;;;;;;;5092591;28;20031;-61
2021/07/10 09:39:00;;;;;;;3.85;2.50;;;;;;;;;;5075212;28;20031;-62
2021/07/10 09:41:28;;;;;;;3.28;2.47;;;;;;;;;;5093429;28;20035;-62
2021/07/10 09:44:03;;;;;;;3.85;2.67;;;;;;;;;;5093109;28;20032;-61
2021/07/10 09:46:29;;;;;;;3.70;2.97;;;;;;;;;;5093339;28;20024;-61
2021/07/10 09:48:55;;;;;;;3.55;2.60;;;;;;;;;;5064606;28;20541;-62
2021/07/10 09:51:28;;;;;;;3.33;2.70;;;;;;;;;;5073290;28;20051;-62
2021/07/10 09:53:58;;;;;;;3.35;2.33;;;;;;;;;;5054726;28;20047;-62
2021/07/10 09:56:24;;;;;;;3.00;2.60;;;;;;;;;;5072614;28;20395;-62
2021/07/10 09:58:51;;;;;;;2.58;2.38;;;;;;;;;;5054848;28;20021;-61
2021/07/10 10:01:29;;;;;;;3.65;2.38;;;;;;;;;;5072801;28;20032;-62
2021/07/10 10:03:57;;;;;;;4.28;2.70;;;;;;;;;;5072992;28;20017;-61
2021/07/10 10:06:34;;;;;;;2.65;2.25;;;;;;;;;;5055011;28;20020;-62
2021/07/10 10:09:16;;;;;;;3.20;2.75;;;;;;;;;;5075232;28;20374;-63
2021/07/10 10:12:01;;;;;;;4.05;2.50;;;;;;;;;;5072763;28;20029;-60
2021/07/10 10:14:29;;;;;;;2.80;2.50;;;;;;;;;;5071771;28;20025;-62
2021/07/10 10:16:56;;;;;;;2.50;2.25;;;;;;;;;;5072313;28;20024;-61
2021/07/10 10:19:26;;;;;;;4.40;2.35;;;;;;;;;;5051168;28;20365;-62
2021/07/10 10:21:54;;;;;;;4.82;2.40;;;;;;;;;;5059613;28;20435;-61
2021/07/10 10:24:20;;;;;;;5.90;2.63;;;;;;;;;;5072227;28;20090;-61
2021/07/10 10:26:47;;;;;;;9.23;2.90;;;;;;;;;;5071531;28;20115;-61
2021/07/10 10:29:14;;;;;;;4.35;2.42;;;;;;;;;;5071518;28;20025;-61
2021/07/10 10:31:41;;;;;;;3.33;2.22;;;;;;;;;;5071999;28;20024;-62
2021/07/10 10:34:09;;;;;;;4.00;2.70;;;;;;;;;;5071877;28;20097;-61
2021/07/10 10:36:35;;;;;;;4.97;2.67;;;;;;;;;;5071925;28;20475;-60
2021/07/10 10:39:03;;;;;;;3.03;2.45;;;;;;;;;;5072208;28;20025;-61
2021/07/10 10:41:30;;;;;;;3.88;2.47;;;;;;;;;;5053652;28;20090;-62
2021/07/10 10:43:56;;;;;;;24.30;3.97;;;;;;;;;;5072076;28;20039;-60
2021/07/10 10:46:23;;;;;;;9.88;3.20;;;;;;;;;;5072197;28;20174;-61
2021/07/10 10:48:50;;;;;;;5.28;2.72;;;;;;;;;;5072288;28;20503;-61
2021/07/10 10:51:22;;;;;;;3.35;2.58;;;;;;;;;;5062107;28;20491;-61
2021/07/10 10:53:48;;;;;;;5.15;2.80;;;;;;;;;;5071990;28;20056;-62
2021/07/10 10:56:33;;;;;;;3.10;2.80;;;;;;;;;;5071301;28;20032;-61
2021/07/10 10:58:59;;;;;;;4.93;3.00;;;;;;;;;;5072050;28;20037;-61
2021/07/10 11:01:32;;;;;;;5.45;2.92;;;;;;;;;;5072343;28;20141;-61
2021/07/10 11:03:58;;;;;;;3.10;2.80;;;;;;;;;;5072204;28;20037;-61
2021/07/10 11:06:31;;;;;;;3.13;2.45;;;;;;;;;;5070725;28;20029;-61
2021/07/10 11:08:58;;;;;;;2.75;2.55;;;;;;;;;;5062832;28;20023;-61
2021/07/10 11:11:27;;;;;;;3.50;2.58;;;;;;;;;;5074498;28;20107;-61
2021/07/10 11:14:10;;;;;;;2.67;2.45;;;;;;;;;;5076018;28;20025;-61
2021/07/10 11:16:37;;;;;;;4.57;3.00;;;;;;;;;;5075019;28;20028;-62
2021/07/10 11:19:07;;;;;;;4.18;2.80;;;;;;;;;;5070202;28;20025;-62
2021/07/10 11:21:48;;;;;;;3.88;2.83;;;;;;;;;;5055944;28;20055;-62
2021/07/10 11:27:03;;;;;;;3.38;2.90;;;;;;;;;;5055434;28;20047;-60
2021/07/10 11:29:30;;;;;;;3.38;2.80;;;;;;;;;;5048513;28;20053;-61
2021/07/10 11:32:11;;;;;;;4.85;2.83;;;;;;;;;;5074088;28;20107;-61
2021/07/10 11:34:43;;;;;;;3.70;2.83;;;;;;;;;;5075448;28;20025;-61
2021/07/10 11:37:18;;;;;;;6.82;2.78;;;;;;;;;;5075845;28;20048;-62
2021/07/10 11:39:44;;;;;;;;;;;;;;;;;;5075743;28;20127;-61
2021/07/10 11:42:20;;;;;;;4.85;3.08;;;;;;;;;;5077746;28;19947;-61
2021/07/10 11:45:11;;;;;;;3.13;2.75;;;;;;;;;;5084526;28;20020;-62
2021/07/10 11:47:41;;;;;;;5.57;3.00;;;;;;;;;;5075796;28;20376;-61
2021/07/10 11:50:22;;;;;;;3.25;2.60;;;;;;;;;;5075213;28;20683;-62
2021/07/10 11:53:02;;;;;;;3.80;2.40;;;;;;;;;;5075093;28;20502;-61
2021/07/10 11:55:29;;;;;;;3.28;2.72;;;;;;;;;;5075083;28;20024;-62
2021/07/10 11:57:56;;;;;;;3.55;2.85;;;;;;;;;;5075437;28;20034;-61
2021/07/10 12:00:23;;;;;;;2.90;2.28;;;;;;;;;;5094242;28;20052;-61
2021/07/10 12:02:50;;;;;;;4.15;3.00;;;;;;;;;;5096183;28;20032;-62
2021/07/10 12:05:26;;;;;;;3.20;2.40;;;;;;;;;;5082672;28;20039;-61
2021/07/10 12:07:52;;;;;;;4.05;2.67;;;;;;;;;;5074886;28;20419;-61
2021/07/10 12:10:25;;;;;;;3.78;3.05;;;;;;;;;;5075067;28;20021;-61
2021/07/10 12:12:54;;;;;;;4.78;2.80;;;;;;;;;;5075010;28;20021;-62
2021/07/10 12:15:31;;;;;;;4.55;2.53;;;;;;;;;;5074913;28;20016;-61
2021/07/10 12:17:58;;;;;;;2.72;2.25;;;;;;;;;;5074883;28;20052;-61
2021/07/10 12:20:27;;;;;;;3.20;2.90;;;;;;;;;;5044137;28;20083;-61
2021/07/10 12:22:55;;;;;;;3.38;2.72;;;;;;;;;;5072843;28;20050;-61
2021/07/10 12:25:23;;;;;;;3.20;2.90;;;;;;;;;;5074769;28;20100;-61
2021/07/10 12:27:56;;;;;;;2.90;2.50;;;;;;;;;;5074684;28;20033;-60
2021/07/10 12:30:42;;;;;;;2.67;2.38;;;;;;;;;;5074791;28;20048;-60
2021/07/10 12:33:28;;;;;;;3.70;2.70;;;;;;;;;;5074384;28;20028;-60
2021/07/10 12:36:20;;;;;;;5.68;2.83;;;;;;;;;;5074411;28;20024;-61
2021/07/10 12:38:51;;;;;;;4.20;2.83;;;;;;;;;;5072492;28;20035;-61
2021/07/10 12:41:18;;;;;;;3.33;2.70;;;;;;;;;;5073518;28;20064;-61
2021/07/10 12:43:44;;;;;;;3.88;2.50;;;;;;;;;;5072830;28;20027;-60
2021/07/10 12:46:10;;;;;;;4.95;2.75;;;;;;;;;;5072831;28;20025;-61
2021/07/10 12:48:36;;;;;;;3.45;2.75;;;;;;;;;;5074258;28;20024;-61
2021/07/10 12:51:02;;;;;;;5.53;2.75;;;;;;;;;;5074072;28;20043;-61
2021/07/10 12:53:33;;;;;;;3.20;2.65;;;;;;;;;;5056428;28;20028;-62
2021/07/10 12:56:12;;;;;;;3.28;2.50;;;;;;;;;;5073448;28;20082;-61
2021/07/10 12:58:41;;;;;;;3.28;2.60;;;;;;;;;;5073669;28;20027;-60
2021/07/10 13:01:07;;;;;;;3.38;2.40;;;;;;;;;;5073413;28;20025;-61
2021/07/10 13:03:33;;;;;;;4.40;2.88;;;;;;;;;;5073707;28;20457;-61
2021/07/10 13:06:00;;;;;;;2.90;2.40;;;;;;;;;;5055159;28;20537;-62
2021/07/10 13:08:26;;;;;;;3.38;2.65;;;;;;;;;;5072893;28;20482;-61
2021/07/10 13:10:52;;;;;;;3.42;3.00;;;;;;;;;;5073404;28;20017;-61
2021/07/10 13:13:24;;;;;;;3.35;2.75;;;;;;;;;;5073854;28;20028;-61
2021/07/10 13:15:52;;;;;;;3.78;2.90;;;;;;;;;;5073227;28;20032;-62
2021/07/10 13:18:18;;;;;;;5.72;2.65;;;;;;;;;;5073445;28;20032;-61
2021/07/10 13:20:45;;;;;;;4.85;2.40;;;;;;;;;;5051967;28;20151;-61
2021/07/10 13:23:12;;;;;;;4.05;2.97;;;;;;;;;;5066397;28;20723;-61
2021/07/10 13:25:39;;;;;;;4.85;3.00;;;;;;;;;;5073344;28;20383;-61
2021/07/10 13:28:24;;;;;;;2.95;2.65;;;;;;;;;;5073096;28;20482;-61
2021/07/10 13:30:50;;;;;;;5.65;2.47;;;;;;;;;;5071161;28;20020;-60
2021/07/10 13:33:29;;;;;;;4.07;2.90;;;;;;;;;;5073112;28;20032;-61
2021/07/10 13:36:15;;;;;;;3.22;2.90;;;;;;;;;;5072640;28;20096;-61
2021/07/10 13:38:42;;;;;;;3.90;2.60;;;;;;;;;;5054824;28;20021;-61
2021/07/10 13:41:12;;;;;;;4.07;3.30;;;;;;;;;;5071583;28;20100;-61
2021/07/10 13:43:38;;;;;;;2.63;2.40;;;;;;;;;;5073430;28;20077;-61
2021/07/10 13:46:09;;;;;;;3.20;2.53;;;;;;;;;;5072309;28;20021;-62
2021/07/10 13:48:37;;;;;;;5.00;2.97;;;;;;;;;;5073846;28;20432;-61
2021/07/10 13:51:04;;;;;;;3.28;2.75;;;;;;;;;;5072597;28;20536;-64
2021/07/10 13:53:31;;;;;;;3.55;2.80;;;;;;;;;;5072936;28;20092;-62
2021/07/10 13:55:57;;;;;;;3.47;2.80;;;;;;;;;;5072852;28;20024;-63
2021/07/10 13:58:33;;;;;;;3.45;2.80;;;;;;;;;;5072275;28;20025;-62
2021/07/10 14:00:59;;;;;;;3.47;2.90;;;;;;;;;;5072600;28;20008;-62
2021/07/10 14:03:25;;;;;;;5.00;3.70;;;;;;;;;;5072687;28;20029;-63
2021/07/10 14:05:52;;;;;;;3.55;2.90;;;;;;;;;;5072473;28;20070;-63
2021/07/10 14:08:19;;;;;;;4.07;2.88;;;;;;;;;;5072247;28;20028;-61
2021/07/10 14:10:47;;;;;;;3.33;2.70;;;;;;;;;;5072431;28;20031;-62
2021/07/10 14:13:15;;;;;;;3.50;2.80;;;;;;;;;;5071885;28;20016;-63
2021/07/10 14:15:44;;;;;;;2.92;2.65;;;;;;;;;;5071869;28;20498;-63
2021/07/10 14:18:11;;;;;;;4.70;3.05;;;;;;;;;;5061346;28;20029;-61
2021/07/10 14:20:37;;;;;;;6.82;3.15;;;;;;;;;;5060756;28;20028;-62
2021/07/10 14:23:04;;;;;;;4.65;3.00;;;;;;;;;;5073104;28;20048;-63
2021/07/10 14:25:31;;;;;;;4.85;2.90;;;;;;;;;;5073215;28;20171;-62
2021/07/10 14:27:57;;;;;;;4.88;3.65;;;;;;;;;;5071756;28;20036;-62
2021/07/10 14:30:25;;;;;;;5.47;3.60;;;;;;;;;;5072333;28;20463;-63
2021/07/10 14:32:52;;;;;;;5.00;3.88;;;;;;;;;;5072251;28;20033;-62
2021/07/10 14:35:19;;;;;;;5.05;3.45;;;;;;;;;;5072440;28;20406;-62
2021/07/10 14:37:45;;;;;;;3.65;3.05;;;;;;;;;;5072334;28;20033;-62
2021/07/10 14:40:13;;;;;;;3.88;3.30;;;;;;;;;;5072373;28;20021;-62
2021/07/10 14:42:39;;;;;;;4.13;3.40;;;;;;;;;;5071603;28;20486;-62
2021/07/10 14:45:06;;;;;;;4.60;3.05;;;;;;;;;;5072395;28;20434;-63
2021/07/10 14:47:32;;;;;;;3.95;3.45;;;;;;;;;;5072201;28;20038;-62
2021/07/10 14:49:58;;;;;;;4.55;3.42;;;;;;;;;;5071495;28;20095;-63